sensor_id;sensor_type;location;lat;lon;timestamp;temperature;humidity
22678;DHT22;26259;50.214;18.620;2023-02-28T00:00:44;0.20;99.90
22678;DHT22;26259;50.214;18.620;2023-02-28T00:03:10;0.10;99.90
22678;DHT22;26259;50.214;18.620;2023-02-28T00:05:36;0.20;99.90
22678;DHT22;26259;50.214;18.620;2023-02-28T00:08:01;0.10;99.90
22678;DHT22;26259;50.214;18.620;2023-02-28T00:10:29;0.10;99.90
22678;DHT22;26259;50.214;18.620;2023-02-28T00:12:59;0.00;99.90
22678;DHT22;26259;50.214;18.620;2023-02-28T00:15:25;0.00;99.90
22678;DHT22;26259;50.214;18.620;2023-02-28T00:17:51;-0.10;99.90
22678;DHT22;26259;50.214;18.620;2023-02-28T00:20:17;-0.10;99.90
22678;DHT22;26259;50.214;18.620;2023-02-28T00:22:45;-0.20;99.90
22678;DHT22;26259;50.214;18.620;2023-02-28T00:25:13;-0.20;99.90
22678;DHT22;26259;50.214;18.620;2023-02-28T00:27:40;-0.30;99.90
22678;DHT22;26259;50.214;18.620;2023-02-28T00:30:08;-0.40;99.90
22678;DHT22;26259;50.214;18.620;2023-02-28T00:32:34;-0.50;99.90
22678;DHT22;26259;50.214;18.620;2023-02-28T00:35:01;-0.60;99.90
22678;DHT22;26259;50.214;18.620;2023-02-28T00:37:26;-0.70;99.90
22678;DHT22;26259;50.214;18.620;2023-02-28T00:39:52;-0.80;99.90
22678;DHT22;26259;50.214;18.620;2023-02-28T00:42:18;-0.90;99.90
22678;DHT22;26259;50.214;18.620;2023-02-28T00:44:43;-1.00;99.90
22678;DHT22;26259;50.214;18.620;2023-02-28T00:47:09;-1.10;99.90
22678;DHT22;26259;50.214;18.620;2023-02-28T00:49:34;-1.10;99.90
22678;DHT22;26259;50.214;18.620;2023-02-28T00:52:00;-1.10;99.90
22678;DHT22;26259;50.214;18.620;2023-02-28T00:54:26;-1.10;99.90
22678;DHT22;26259;50.214;18.620;2023-02-28T00:56:51;-1.10;99.90
22678;DHT22;26259;50.214;18.620;2023-02-28T00:59:17;-1.20;99.90
22678;DHT22;26259;50.214;18.620;2023-02-28T01:01:44;-1.20;99.90
22678;DHT22;26259;50.214;18.620;2023-02-28T01:04:10;-1.20;99.90
22678;DHT22;26259;50.214;18.620;2023-02-28T01:06:36;-1.10;99.90
22678;DHT22;26259;50.214;18.620;2023-02-28T01:09:03;-1.20;99.90
22678;DHT22;26259;50.214;18.620;2023-02-28T01:11:29;-1.20;99.90
22678;DHT22;26259;50.214;18.620;2023-02-28T01:13:55;-1.30;99.90
22678;DHT22;26259;50.214;18.620;2023-02-28T01:16:21;-1.20;99.90
22678;DHT22;26259;50.214;18.620;2023-02-28T01:18:46;-1.20;99.90
22678;DHT22;26259;50.214;18.620;2023-02-28T01:21:15;-1.10;99.90
22678;DHT22;26259;50.214;18.620;2023-02-28T01:23:41;-1.10;99.90
22678;DHT22;26259;50.214;18.620;2023-02-28T01:26:09;-1.10;99.90
22678;DHT22;26259;50.214;18.620;2023-02-28T01:28:35;-1.10;99.90
22678;DHT22;26259;50.214;18.620;2023-02-28T01:31:01;-1.10;99.90
22678;DHT22;26259;50.214;18.620;2023-02-28T01:33:27;-1.10;99.90
22678;DHT22;26259;50.214;18.620;2023-02-28T01:38:38;-1.20;99.90
22678;DHT22;26259;50.214;18.620;2023-02-28T01:41:05;-1.20;99.90
22678;DHT22;26259;50.214;18.620;2023-02-28T01:46:07;-1.20;99.90
22678;DHT22;26259;50.214;18.620;2023-02-28T01:48:36;-1.10;99.90
22678;DHT22;26259;50.214;18.620;2023-02-28T01:51:07;-1.10;99.90
22678;DHT22;26259;50.214;18.620;2023-02-28T01:53:39;-1.00;99.90
22678;DHT22;26259;50.214;18.620;2023-02-28T01:56:09;-1.00;99.90
22678;DHT22;26259;50.214;18.620;2023-02-28T01:58:37;-1.00;99.90
22678;DHT22;26259;50.214;18.620;2023-02-28T02:01:03;-0.90;99.90
22678;DHT22;26259;50.214;18.620;2023-02-28T02:03:30;-0.90;99.90
22678;DHT22;26259;50.214;18.620;2023-02-28T02:05:56;-0.80;99.90
22678;DHT22;26259;50.214;18.620;2023-02-28T02:08:26;-0.70;99.90
22678;DHT22;26259;50.214;18.620;2023-02-28T02:10:59;-0.70;99.90
22678;DHT22;26259;50.214;18.620;2023-02-28T02:18:46;-0.70;99.90
22678;DHT22;26259;50.214;18.620;2023-02-28T02:32:32;-0.60;99.90
22678;DHT22;26259;50.214;18.620;2023-02-28T02:35:17;-0.70;99.90
22678;DHT22;26259;50.214;18.620;2023-02-28T02:40:42;-0.80;99.90
22678;DHT22;26259;50.214;18.620;2023-02-28T02:43:28;-0.90;99.90
22678;DHT22;26259;50.214;18.620;2023-02-28T02:46:10;-1.00;99.90
22678;DHT22;26259;50.214;18.620;2023-02-28T02:48:39;-1.00;99.90
22678;DHT22;26259;50.214;18.620;2023-02-28T02:51:16;-1.10;99.90
22678;DHT22;26259;50.214;18.620;2023-02-28T02:53:55;-1.20;99.90
22678;DHT22;26259;50.214;18.620;2023-02-28T02:56:26;-1.30;99.90
22678;DHT22;26259;50.214;18.620;2023-02-28T02:58:55;-1.30;99.90
22678;DHT22;26259;50.214;18.620;2023-02-28T03:01:24;-1.40;99.90
22678;DHT22;26259;50.214;18.620;2023-02-28T03:04:18;-1.50;99.90
22678;DHT22;26259;50.214;18.620;2023-02-28T03:06:44;-1.50;99.90
22678;DHT22;26259;50.214;18.620;2023-02-28T03:09:10;-1.60;99.90
22678;DHT22;26259;50.214;18.620;2023-02-28T03:11:37;-1.70;99.90
22678;DHT22;26259;50.214;18.620;2023-02-28T03:14:15;-1.90;99.90
22678;DHT22;26259;50.214;18.620;2023-02-28T03:17:01;-2.00;99.90
22678;DHT22;26259;50.214;18.620;2023-02-28T03:25:37;-2.30;99.90
22678;DHT22;26259;50.214;18.620;2023-02-28T03:31:26;-2.60;99.90
22678;DHT22;26259;50.214;18.620;2023-02-28T03:33:33;-2.70;99.90
22678;DHT22;26259;50.214;18.620;2023-02-28T03:36:20;-2.70;99.90
22678;DHT22;26259;50.214;18.620;2023-02-28T03:38:52;-2.80;99.90
22678;DHT22;26259;50.214;18.620;2023-02-28T03:41:25;-2.80;99.90
22678;DHT22;26259;50.214;18.620;2023-02-28T03:43:55;-2.90;99.90
22678;DHT22;26259;50.214;18.620;2023-02-28T03:46:25;-2.90;99.90
22678;DHT22;26259;50.214;18.620;2023-02-28T03:49:25;-3.00;99.90
22678;DHT22;26259;50.214;18.620;2023-02-28T03:51:53;-3.00;99.90
22678;DHT22;26259;50.214;18.620;2023-02-28T03:54:23;-3.10;99.90
22678;DHT22;26259;50.214;18.620;2023-02-28T04:00:12;-3.10;99.90
22678;DHT22;26259;50.214;18.620;2023-02-28T04:02:39;-3.10;99.90
22678;DHT22;26259;50.214;18.620;2023-02-28T04:05:06;-3.10;99.90
22678;DHT22;26259;50.214;18.620;2023-02-28T04:07:33;-3.20;99.90
22678;DHT22;26259;50.214;18.620;2023-02-28T04:09:59;-3.20;99.90
22678;DHT22;26259;50.214;18.620;2023-02-28T04:12:25;-3.20;99.90
22678;DHT22;26259;50.214;18.620;2023-02-28T04:14:50;-3.30;99.90
22678;DHT22;26259;50.214;18.620;2023-02-28T04:17:16;-3.30;99.90
22678;DHT22;26259;50.214;18.620;2023-02-28T04:19:43;-3.30;99.90
22678;DHT22;26259;50.214;18.620;2023-02-28T04:22:09;-3.40;99.90
22678;DHT22;26259;50.214;18.620;2023-02-28T04:24:35;-3.30;99.90
22678;DHT22;26259;50.214;18.620;2023-02-28T04:27:04;-3.30;99.90
22678;DHT22;26259;50.214;18.620;2023-02-28T04:29:31;-3.30;99.90
22678;DHT22;26259;50.214;18.620;2023-02-28T04:31:58;-3.40;99.90
22678;DHT22;26259;50.214;18.620;2023-02-28T04:34:28;-3.40;99.90
22678;DHT22;26259;50.214;18.620;2023-02-28T04:36:54;-3.50;99.90
22678;DHT22;26259;50.214;18.620;2023-02-28T04:39:21;-3.50;99.90
22678;DHT22;26259;50.214;18.620;2023-02-28T04:41:47;-3.50;99.90
22678;DHT22;26259;50.214;18.620;2023-02-28T04:44:13;-3.60;99.90
22678;DHT22;26259;50.214;18.620;2023-02-28T04:46:40;-3.60;99.90
22678;DHT22;26259;50.214;18.620;2023-02-28T04:49:05;-3.70;99.90
22678;DHT22;26259;50.214;18.620;2023-02-28T04:51:31;-3.80;99.90
22678;DHT22;26259;50.214;18.620;2023-02-28T04:53:56;-3.90;99.90
22678;DHT22;26259;50.214;18.620;2023-02-28T04:56:22;-3.90;99.90
22678;DHT22;26259;50.214;18.620;2023-02-28T04:58:48;-4.00;99.90
22678;DHT22;26259;50.214;18.620;2023-02-28T05:01:21;-3.90;99.90
22678;DHT22;26259;50.214;18.620;2023-02-28T05:03:48;-4.00;99.90
22678;DHT22;26259;50.214;18.620;2023-02-28T05:06:14;-4.00;99.90
22678;DHT22;26259;50.214;18.620;2023-02-28T05:08:40;-4.00;99.90
22678;DHT22;26259;50.214;18.620;2023-02-28T05:11:33;-4.00;99.90
22678;DHT22;26259;50.214;18.620;2023-02-28T05:14:09;-4.00;99.90
22678;DHT22;26259;50.214;18.620;2023-02-28T05:16:35;-4.10;99.90
22678;DHT22;26259;50.214;18.620;2023-02-28T05:19:01;-4.10;99.90
22678;DHT22;26259;50.214;18.620;2023-02-28T05:21:29;-4.00;99.90
22678;DHT22;26259;50.214;18.620;2023-02-28T05:23:57;-4.00;99.90
22678;DHT22;26259;50.214;18.620;2023-02-28T05:26:23;-4.00;99.90
22678;DHT22;26259;50.214;18.620;2023-02-28T05:28:48;-4.00;99.90
22678;DHT22;26259;50.214;18.620;2023-02-28T05:31:14;-3.90;99.90
22678;DHT22;26259;50.214;18.620;2023-02-28T05:33:40;-3.80;99.90
22678;DHT22;26259;50.214;18.620;2023-02-28T05:36:06;-3.70;99.90
22678;DHT22;26259;50.214;18.620;2023-02-28T05:38:32;-3.70;99.90
22678;DHT22;26259;50.214;18.620;2023-02-28T05:40:58;-3.70;99.90
22678;DHT22;26259;50.214;18.620;2023-02-28T05:43:24;-3.70;99.90
22678;DHT22;26259;50.214;18.620;2023-02-28T05:45:49;-3.60;99.90
22678;DHT22;26259;50.214;18.620;2023-02-28T05:48:15;-3.70;99.90
22678;DHT22;26259;50.214;18.620;2023-02-28T05:50:42;-3.70;99.90
22678;DHT22;26259;50.214;18.620;2023-02-28T05:53:08;-3.60;99.90
22678;DHT22;26259;50.214;18.620;2023-02-28T05:55:33;-3.60;99.90
22678;DHT22;26259;50.214;18.620;2023-02-28T05:58:01;-3.50;99.90
22678;DHT22;26259;50.214;18.620;2023-02-28T06:00:26;-3.50;99.90
22678;DHT22;26259;50.214;18.620;2023-02-28T06:02:53;-3.40;99.90
22678;DHT22;26259;50.214;18.620;2023-02-28T06:05:21;-3.30;99.90
22678;DHT22;26259;50.214;18.620;2023-02-28T06:07:47;-3.30;99.90
22678;DHT22;26259;50.214;18.620;2023-02-28T06:10:13;-3.30;99.90
22678;DHT22;26259;50.214;18.620;2023-02-28T06:12:39;-3.20;99.90
22678;DHT22;26259;50.214;18.620;2023-02-28T06:15:07;-3.10;99.90
22678;DHT22;26259;50.214;18.620;2023-02-28T06:17:33;-3.10;99.90
22678;DHT22;26259;50.214;18.620;2023-02-28T06:19:58;-3.00;99.90
22678;DHT22;26259;50.214;18.620;2023-02-28T06:22:24;-2.90;99.90
22678;DHT22;26259;50.214;18.620;2023-02-28T06:24:50;-2.90;99.90
22678;DHT22;26259;50.214;18.620;2023-02-28T06:27:15;-2.70;99.90
22678;DHT22;26259;50.214;18.620;2023-02-28T06:29:41;-2.70;99.90
22678;DHT22;26259;50.214;18.620;2023-02-28T06:32:07;-2.60;99.90
22678;DHT22;26259;50.214;18.620;2023-02-28T06:34:32;-2.50;99.90
22678;DHT22;26259;50.214;18.620;2023-02-28T06:36:59;-2.50;99.90
22678;DHT22;26259;50.214;18.620;2023-02-28T06:39:28;-2.40;99.90
22678;DHT22;26259;50.214;18.620;2023-02-28T06:41:53;-2.30;99.90
22678;DHT22;26259;50.214;18.620;2023-02-28T06:44:19;-2.20;99.90
22678;DHT22;26259;50.214;18.620;2023-02-28T06:46:45;-2.10;99.90
22678;DHT22;26259;50.214;18.620;2023-02-28T06:49:11;-2.00;99.90
22678;DHT22;26259;50.214;18.620;2023-02-28T06:51:41;-1.90;99.90
22678;DHT22;26259;50.214;18.620;2023-02-28T06:54:07;-1.80;99.90
22678;DHT22;26259;50.214;18.620;2023-02-28T06:56:36;-1.70;99.90
22678;DHT22;26259;50.214;18.620;2023-02-28T06:59:02;-1.70;99.90
22678;DHT22;26259;50.214;18.620;2023-02-28T07:01:29;-1.50;99.90
22678;DHT22;26259;50.214;18.620;2023-02-28T07:03:54;-1.50;99.90
22678;DHT22;26259;50.214;18.620;2023-02-28T07:06:21;-1.40;99.90
22678;DHT22;26259;50.214;18.620;2023-02-28T07:08:51;-1.30;99.90
22678;DHT22;26259;50.214;18.620;2023-02-28T07:11:18;-1.20;99.90
22678;DHT22;26259;50.214;18.620;2023-02-28T07:13:44;-1.10;99.90
22678;DHT22;26259;50.214;18.620;2023-02-28T07:16:12;-1.10;99.90
22678;DHT22;26259;50.214;18.620;2023-02-28T07:18:38;-0.90;99.90
22678;DHT22;26259;50.214;18.620;2023-02-28T07:21:08;-0.90;99.90
22678;DHT22;26259;50.214;18.620;2023-02-28T07:23:35;-0.80;99.90
22678;DHT22;26259;50.214;18.620;2023-02-28T07:26:01;-0.70;99.90
22678;DHT22;26259;50.214;18.620;2023-02-28T07:28:26;-0.60;99.90
22678;DHT22;26259;50.214;18.620;2023-02-28T07:30:52;-0.60;99.90
22678;DHT22;26259;50.214;18.620;2023-02-28T07:33:18;-0.50;99.90
22678;DHT22;26259;50.214;18.620;2023-02-28T07:35:43;-0.40;99.90
22678;DHT22;26259;50.214;18.620;2023-02-28T07:38:09;-0.40;99.90
22678;DHT22;26259;50.214;18.620;2023-02-28T07:40:36;-0.30;99.90
22678;DHT22;26259;50.214;18.620;2023-02-28T07:43:02;-0.20;99.90
22678;DHT22;26259;50.214;18.620;2023-02-28T07:45:29;-0.20;99.90
22678;DHT22;26259;50.214;18.620;2023-02-28T07:47:55;-0.10;99.90
22678;DHT22;26259;50.214;18.620;2023-02-28T07:50:21;0.00;99.90
22678;DHT22;26259;50.214;18.620;2023-02-28T07:52:46;0.00;99.90
22678;DHT22;26259;50.214;18.620;2023-02-28T07:55:12;0.00;99.90
22678;DHT22;26259;50.214;18.620;2023-02-28T07:57:40;0.10;99.90
22678;DHT22;26259;50.214;18.620;2023-02-28T08:00:09;0.10;99.90
22678;DHT22;26259;50.214;18.620;2023-02-28T08:02:35;0.20;99.90
22678;DHT22;26259;50.214;18.620;2023-02-28T08:05:01;0.30;99.90
22678;DHT22;26259;50.214;18.620;2023-02-28T08:07:27;0.40;99.90
22678;DHT22;26259;50.214;18.620;2023-02-28T08:09:53;0.50;99.90
22678;DHT22;26259;50.214;18.620;2023-02-28T08:12:19;0.60;99.90
22678;DHT22;26259;50.214;18.620;2023-02-28T08:14:44;0.70;99.90
22678;DHT22;26259;50.214;18.620;2023-02-28T08:17:11;0.80;99.90
22678;DHT22;26259;50.214;18.620;2023-02-28T08:19:36;0.70;99.90
22678;DHT22;26259;50.214;18.620;2023-02-28T08:22:02;0.80;99.90
22678;DHT22;26259;50.214;18.620;2023-02-28T08:24:28;0.80;99.90
22678;DHT22;26259;50.214;18.620;2023-02-28T08:26:54;0.80;99.90
22678;DHT22;26259;50.214;18.620;2023-02-28T08:29:20;0.90;99.90
22678;DHT22;26259;50.214;18.620;2023-02-28T08:31:45;0.70;99.90
22678;DHT22;26259;50.214;18.620;2023-02-28T08:34:14;0.70;99.90
22678;DHT22;26259;50.214;18.620;2023-02-28T08:36:40;0.80;99.90
22678;DHT22;26259;50.214;18.620;2023-02-28T08:39:06;0.80;99.90
22678;DHT22;26259;50.214;18.620;2023-02-28T08:41:33;0.90;99.90
22678;DHT22;26259;50.214;18.620;2023-02-28T08:43:59;0.90;99.90
22678;DHT22;26259;50.214;18.620;2023-02-28T08:46:25;1.00;99.90
22678;DHT22;26259;50.214;18.620;2023-02-28T08:48:55;1.00;99.90
22678;DHT22;26259;50.214;18.620;2023-02-28T08:51:21;1.00;99.90
22678;DHT22;26259;50.214;18.620;2023-02-28T08:53:57;1.10;99.90
22678;DHT22;26259;50.214;18.620;2023-02-28T08:56:22;1.20;99.90
22678;DHT22;26259;50.214;18.620;2023-02-28T08:58:49;1.30;99.90
22678;DHT22;26259;50.214;18.620;2023-02-28T09:01:18;1.30;99.90
22678;DHT22;26259;50.214;18.620;2023-02-28T09:03:44;1.40;99.90
22678;DHT22;26259;50.214;18.620;2023-02-28T09:06:11;1.50;99.90
22678;DHT22;26259;50.214;18.620;2023-02-28T09:08:38;1.60;99.90
22678;DHT22;26259;50.214;18.620;2023-02-28T09:11:04;1.70;99.90
22678;DHT22;26259;50.214;18.620;2023-02-28T09:13:30;1.90;99.90
22678;DHT22;26259;50.214;18.620;2023-02-28T09:15:58;1.90;99.90
22678;DHT22;26259;50.214;18.620;2023-02-28T09:18:25;1.80;99.90
22678;DHT22;26259;50.214;18.620;2023-02-28T09:20:51;1.90;99.90
22678;DHT22;26259;50.214;18.620;2023-02-28T09:23:17;1.90;99.90
22678;DHT22;26259;50.214;18.620;2023-02-28T09:25:48;1.90;99.90
22678;DHT22;26259;50.214;18.620;2023-02-28T09:28:14;1.90;99.90
22678;DHT22;26259;50.214;18.620;2023-02-28T09:30:48;2.00;99.90
22678;DHT22;26259;50.214;18.620;2023-02-28T09:33:15;2.00;99.90
22678;DHT22;26259;50.214;18.620;2023-02-28T09:35:40;2.00;99.90
22678;DHT22;26259;50.214;18.620;2023-02-28T09:38:07;1.80;99.90
22678;DHT22;26259;50.214;18.620;2023-02-28T09:40:37;1.80;99.90
22678;DHT22;26259;50.214;18.620;2023-02-28T09:43:04;1.70;99.90
22678;DHT22;26259;50.214;18.620;2023-02-28T09:45:35;1.60;99.90
22678;DHT22;26259;50.214;18.620;2023-02-28T09:48:10;1.60;99.90
22678;DHT22;26259;50.214;18.620;2023-02-28T09:50:49;1.60;99.90
22678;DHT22;26259;50.214;18.620;2023-02-28T09:53:34;1.70;99.90
22678;DHT22;26259;50.214;18.620;2023-02-28T09:56:09;1.80;99.90
22678;DHT22;26259;50.214;18.620;2023-02-28T09:58:52;1.90;99.90
22678;DHT22;26259;50.214;18.620;2023-02-28T10:01:30;2.00;99.90
22678;DHT22;26259;50.214;18.620;2023-02-28T10:06:51;2.10;99.90
22678;DHT22;26259;50.214;18.620;2023-02-28T10:09:21;2.10;99.90
22678;DHT22;26259;50.214;18.620;2023-02-28T10:11:52;2.30;99.90
22678;DHT22;26259;50.214;18.620;2023-02-28T10:14:20;2.40;99.90
22678;DHT22;26259;50.214;18.620;2023-02-28T10:22:11;2.70;99.90
22678;DHT22;26259;50.214;18.620;2023-02-28T10:24:46;3.00;99.90
22678;DHT22;26259;50.214;18.620;2023-02-28T10:27:23;3.10;99.90
22678;DHT22;26259;50.214;18.620;2023-02-28T10:29:58;3.20;99.90
22678;DHT22;26259;50.214;18.620;2023-02-28T10:32:30;3.50;99.90
22678;DHT22;26259;50.214;18.620;2023-02-28T10:35:15;3.60;99.90
22678;DHT22;26259;50.214;18.620;2023-02-28T10:37:44;3.80;99.90
22678;DHT22;26259;50.214;18.620;2023-02-28T10:40:32;3.80;99.90
22678;DHT22;26259;50.214;18.620;2023-02-28T10:43:01;3.60;99.90
22678;DHT22;26259;50.214;18.620;2023-02-28T10:45:35;3.90;99.90
22678;DHT22;26259;50.214;18.620;2023-02-28T10:58:56;4.30;99.90
22678;DHT22;26259;50.214;18.620;2023-02-28T11:04:20;4.20;99.90
22678;DHT22;26259;50.214;18.620;2023-02-28T11:07:09;3.90;99.90
22678;DHT22;26259;50.214;18.620;2023-02-28T11:09:41;3.70;99.90
22678;DHT22;26259;50.214;18.620;2023-02-28T11:14:53;3.40;99.90
22678;DHT22;26259;50.214;18.620;2023-02-28T11:17:22;3.20;99.90
22678;DHT22;26259;50.214;18.620;2023-02-28T11:19:51;3.10;99.90
22678;DHT22;26259;50.214;18.620;2023-02-28T11:22:21;3.00;99.90
22678;DHT22;26259;50.214;18.620;2023-02-28T11:24:51;3.00;99.90
22678;DHT22;26259;50.214;18.620;2023-02-28T11:27:39;3.20;99.90
22678;DHT22;26259;50.214;18.620;2023-02-28T11:32:49;3.20;99.90
22678;DHT22;26259;50.214;18.620;2023-02-28T11:35:28;3.20;99.90
22678;DHT22;26259;50.214;18.620;2023-02-28T11:37:55;3.20;99.90
22678;DHT22;26259;50.214;18.620;2023-02-28T11:40:30;3.20;99.90
22678;DHT22;26259;50.214;18.620;2023-02-28T11:55:30;3.10;99.90
22678;DHT22;26259;50.214;18.620;2023-02-28T12:00:52;3.10;99.90
22678;DHT22;26259;50.214;18.620;2023-02-28T12:03:40;3.20;99.90
22678;DHT22;26259;50.214;18.620;2023-02-28T12:06:21;3.20;99.90
22678;DHT22;26259;50.214;18.620;2023-02-28T12:11:54;3.10;99.90
22678;DHT22;26259;50.214;18.620;2023-02-28T12:27:30;3.30;99.90
22678;DHT22;26259;50.214;18.620;2023-02-28T12:30:05;3.30;99.90
22678;DHT22;26259;50.214;18.620;2023-02-28T12:32:42;3.40;99.90
22678;DHT22;26259;50.214;18.620;2023-02-28T12:37:42;3.40;99.90
22678;DHT22;26259;50.214;18.620;2023-02-28T12:40:18;3.40;99.90
22678;DHT22;26259;50.214;18.620;2023-02-28T12:42:58;3.40;99.90
22678;DHT22;26259;50.214;18.620;2023-02-28T12:48:06;3.30;99.90
22678;DHT22;26259;50.214;18.620;2023-02-28T12:50:33;3.40;99.90
22678;DHT22;26259;50.214;18.620;2023-02-28T12:53:25;3.40;99.90
22678;DHT22;26259;50.214;18.620;2023-02-28T12:58:50;3.40;99.90
22678;DHT22;26259;50.214;18.620;2023-02-28T13:09:33;3.40;99.90
22678;DHT22;26259;50.214;18.620;2023-02-28T13:11:59;3.40;99.90
22678;DHT22;26259;50.214;18.620;2023-02-28T13:19:38;3.50;99.90
22678;DHT22;26259;50.214;18.620;2023-02-28T13:22:05;3.50;99.90
22678;DHT22;26259;50.214;18.620;2023-02-28T13:27:24;3.50;99.90
22678;DHT22;26259;50.214;18.620;2023-02-28T13:29:51;3.60;99.90
22678;DHT22;26259;50.214;18.620;2023-02-28T13:47:39;3.60;99.90
22678;DHT22;26259;50.214;18.620;2023-02-28T13:55:31;3.50;99.90
22678;DHT22;26259;50.214;18.620;2023-02-28T13:58:14;3.50;99.90
22678;DHT22;26259;50.214;18.620;2023-02-28T14:03:57;3.50;99.90
22678;DHT22;26259;50.214;18.620;2023-02-28T14:06:52;3.50;99.90
22678;DHT22;26259;50.214;18.620;2023-02-28T14:11:55;3.50;99.90
22678;DHT22;26259;50.214;18.620;2023-02-28T14:17:06;3.60;99.90
22678;DHT22;26259;50.214;18.620;2023-02-28T14:19:37;3.50;99.90
22678;DHT22;26259;50.214;18.620;2023-02-28T14:27:24;3.50;99.90
22678;DHT22;26259;50.214;18.620;2023-02-28T14:33:03;3.40;99.90
22678;DHT22;26259;50.214;18.620;2023-02-28T14:38:21;3.40;99.90
22678;DHT22;26259;50.214;18.620;2023-02-28T14:40:51;3.40;99.90
22678;DHT22;26259;50.214;18.620;2023-02-28T14:43:26;3.40;99.90
22678;DHT22;26259;50.214;18.620;2023-02-28T14:45:55;3.40;99.90
22678;DHT22;26259;50.214;18.620;2023-02-28T14:48:22;3.30;99.90
22678;DHT22;26259;50.214;18.620;2023-02-28T14:50:54;3.30;99.90
22678;DHT22;26259;50.214;18.620;2023-02-28T14:53:23;3.30;99.90
22678;DHT22;26259;50.214;18.620;2023-02-28T14:55:50;3.30;99.90
22678;DHT22;26259;50.214;18.620;2023-02-28T14:58:30;3.30;99.90
22678;DHT22;26259;50.214;18.620;2023-02-28T15:00:59;3.30;99.90
22678;DHT22;26259;50.214;18.620;2023-02-28T15:03:38;3.20;99.90
22678;DHT22;26259;50.214;18.620;2023-02-28T15:06:11;3.30;99.90
22678;DHT22;26259;50.214;18.620;2023-02-28T15:08:37;3.20;99.90
22678;DHT22;26259;50.214;18.620;2023-02-28T15:11:14;3.20;99.90
22678;DHT22;26259;50.214;18.620;2023-02-28T15:13:52;3.20;99.90
22678;DHT22;26259;50.214;18.620;2023-02-28T15:18:49;3.10;99.90
22678;DHT22;26259;50.214;18.620;2023-02-28T15:21:27;3.10;99.90
22678;DHT22;26259;50.214;18.620;2023-02-28T15:24:02;3.10;99.90
22678;DHT22;26259;50.214;18.620;2023-02-28T15:26:33;3.10;99.90
22678;DHT22;26259;50.214;18.620;2023-02-28T15:29:01;3.10;99.90
22678;DHT22;26259;50.214;18.620;2023-02-28T15:31:32;3.00;99.90
22678;DHT22;26259;50.214;18.620;2023-02-28T15:34:03;3.00;99.90
22678;DHT22;26259;50.214;18.620;2023-02-28T15:36:32;3.00;99.90
22678;DHT22;26259;50.214;18.620;2023-02-28T15:38:59;2.90;99.90
22678;DHT22;26259;50.214;18.620;2023-02-28T15:41:37;2.90;99.90
22678;DHT22;26259;50.214;18.620;2023-02-28T15:44:26;2.80;99.90
22678;DHT22;26259;50.214;18.620;2023-02-28T15:47:06;2.80;99.90
22678;DHT22;26259;50.214;18.620;2023-02-28T15:49:39;2.70;99.90
22678;DHT22;26259;50.214;18.620;2023-02-28T15:52:05;2.70;99.90
22678;DHT22;26259;50.214;18.620;2023-02-28T15:54:35;2.50;99.90
22678;DHT22;26259;50.214;18.620;2023-02-28T15:57:10;2.40;99.90
22678;DHT22;26259;50.214;18.620;2023-02-28T15:59:38;2.40;99.90
22678;DHT22;26259;50.214;18.620;2023-02-28T16:02:12;2.30;99.90
22678;DHT22;26259;50.214;18.620;2023-02-28T16:04:58;2.20;99.90
22678;DHT22;26259;50.214;18.620;2023-02-28T16:07:24;2.20;99.90
22678;DHT22;26259;50.214;18.620;2023-02-28T16:09:50;2.10;99.90
22678;DHT22;26259;50.214;18.620;2023-02-28T16:12:24;2.10;99.90
22678;DHT22;26259;50.214;18.620;2023-02-28T16:14:52;1.90;99.90
22678;DHT22;26259;50.214;18.620;2023-02-28T16:17:26;1.80;99.90
22678;DHT22;26259;50.214;18.620;2023-02-28T16:19:53;1.70;99.90
22678;DHT22;26259;50.214;18.620;2023-02-28T16:22:19;1.60;99.90
22678;DHT22;26259;50.214;18.620;2023-02-28T16:24:44;1.40;99.90
22678;DHT22;26259;50.214;18.620;2023-02-28T16:27:17;1.20;99.90
22678;DHT22;26259;50.214;18.620;2023-02-28T16:29:44;1.10;99.90
22678;DHT22;26259;50.214;18.620;2023-02-28T16:32:13;1.00;99.90
22678;DHT22;26259;50.214;18.620;2023-02-28T16:34:39;0.90;99.90
22678;DHT22;26259;50.214;18.620;2023-02-28T16:37:11;0.80;99.90
22678;DHT22;26259;50.214;18.620;2023-02-28T16:39:37;0.70;99.90
22678;DHT22;26259;50.214;18.620;2023-02-28T16:42:02;0.60;99.90
22678;DHT22;26259;50.214;18.620;2023-02-28T16:44:34;0.50;99.90
22678;DHT22;26259;50.214;18.620;2023-02-28T16:47:01;0.40;99.90
22678;DHT22;26259;50.214;18.620;2023-02-28T16:49:27;0.20;99.90
22678;DHT22;26259;50.214;18.620;2023-02-28T16:51:53;0.10;99.90
22678;DHT22;26259;50.214;18.620;2023-02-28T16:54:19;0.00;99.90
22678;DHT22;26259;50.214;18.620;2023-02-28T16:56:46;-0.10;99.90
22678;DHT22;26259;50.214;18.620;2023-02-28T16:59:12;-0.20;99.90
22678;DHT22;26259;50.214;18.620;2023-02-28T17:01:39;-0.30;99.90
22678;DHT22;26259;50.214;18.620;2023-02-28T17:04:05;-0.40;99.90
22678;DHT22;26259;50.214;18.620;2023-02-28T17:06:30;-0.50;99.90
22678;DHT22;26259;50.214;18.620;2023-02-28T17:08:58;-0.60;99.90
22678;DHT22;26259;50.214;18.620;2023-02-28T17:11:25;-0.70;99.90
22678;DHT22;26259;50.214;18.620;2023-02-28T17:13:51;-0.70;99.90
22678;DHT22;26259;50.214;18.620;2023-02-28T17:16:29;-0.80;99.90
22678;DHT22;26259;50.214;18.620;2023-02-28T17:18:59;-0.90;99.90
22678;DHT22;26259;50.214;18.620;2023-02-28T17:21:25;-1.00;99.90
22678;DHT22;26259;50.214;18.620;2023-02-28T17:23:51;-1.10;99.90
22678;DHT22;26259;50.214;18.620;2023-02-28T17:26:18;-1.10;99.90
22678;DHT22;26259;50.214;18.620;2023-02-28T17:28:48;-1.20;99.90
22678;DHT22;26259;50.214;18.620;2023-02-28T17:31:14;-1.30;99.90
22678;DHT22;26259;50.214;18.620;2023-02-28T17:33:39;-1.40;99.90
22678;DHT22;26259;50.214;18.620;2023-02-28T17:36:05;-1.50;99.90
22678;DHT22;26259;50.214;18.620;2023-02-28T17:38:31;-1.50;99.90
22678;DHT22;26259;50.214;18.620;2023-02-28T17:40:57;-1.60;99.90
22678;DHT22;26259;50.214;18.620;2023-02-28T17:43:26;-1.70;99.90
22678;DHT22;26259;50.214;18.620;2023-02-28T17:45:52;-1.70;99.90
22678;DHT22;26259;50.214;18.620;2023-02-28T17:48:18;-1.80;99.90
22678;DHT22;26259;50.214;18.620;2023-02-28T17:50:44;-1.80;99.90
22678;DHT22;26259;50.214;18.620;2023-02-28T17:53:09;-1.90;99.90
22678;DHT22;26259;50.214;18.620;2023-02-28T17:55:35;-1.90;99.90
22678;DHT22;26259;50.214;18.620;2023-02-28T17:58:02;-1.90;99.90
22678;DHT22;26259;50.214;18.620;2023-02-28T18:00:28;-1.90;99.90
22678;DHT22;26259;50.214;18.620;2023-02-28T18:02:54;-1.90;99.90
22678;DHT22;26259;50.214;18.620;2023-02-28T18:05:20;-2.00;99.90
22678;DHT22;26259;50.214;18.620;2023-02-28T18:07:45;-2.00;99.90
22678;DHT22;26259;50.214;18.620;2023-02-28T18:10:15;-2.10;99.90
22678;DHT22;26259;50.214;18.620;2023-02-28T18:12:41;-2.10;99.90
22678;DHT22;26259;50.214;18.620;2023-02-28T18:15:07;-2.10;99.90
22678;DHT22;26259;50.214;18.620;2023-02-28T18:17:33;-2.10;99.90